Time;durP1;ratioP1;P1;durP2;ratioP2;P2;SDS_P1;SDS_P2;PMS_P1;PMS_P2;Temp;Humidity;BMP_temperature;BMP_pressure;BME280_temperature;BME280_humidity;BME280_pressure;Samples;Min_cycle;Max_cycle;Signal;HPM_P1;HPM_P2
2022/05/09 00:01:47;;;;;;;2.33;1.20;;;;;;;;;;4942207;28;20373;-81
2022/05/09 00:04:12;;;;;;;4.60;1.70;;;;;;;;;;4958555;28;20113;-80
2022/05/09 00:06:37;;;;;;;4.18;1.50;;;;;;;;;;4939058;29;20089;-80
2022/05/09 00:09:04;;;;;;;4.75;1.52;;;;;;;;;;4938989;29;20039;-80
2022/05/09 00:11:30;;;;;;;3.05;1.58;;;;;;;;;;4955050;29;20062;-80
2022/05/09 00:13:55;;;;;;;3.17;1.27;;;;;;;;;;4938878;28;20049;-78
2022/05/09 00:16:21;;;;;;;4.68;1.40;;;;;;;;;;4956548;28;20028;-80
2022/05/09 00:18:46;;;;;;;3.38;1.63;;;;;;;;;;4939296;29;20038;-80
2022/05/09 00:21:12;;;;;;;3.50;1.67;;;;;;;;;;4954823;29;20345;-81
2022/05/09 00:23:38;;;;;;;6.10;1.77;;;;;;;;;;4954679;29;20474;-80
2022/05/09 00:26:03;;;;;;;3.03;1.35;;;;;;;;;;4954765;29;20394;-80
2022/05/09 00:28:29;;;;;;;2.55;1.40;;;;;;;;;;4954733;29;20118;-80
2022/05/09 00:30:55;;;;;;;7.07;1.40;;;;;;;;;;4954702;28;20449;-78
2022/05/09 00:33:21;;;;;;;3.13;1.58;;;;;;;;;;4938666;29;20038;-79
2022/05/09 00:35:46;;;;;;;4.45;1.55;;;;;;;;;;4938613;28;20027;-79
2022/05/09 00:38:12;;;;;;;3.47;1.20;;;;;;;;;;4954432;29;20416;-79
2022/05/09 00:40:38;;;;;;;3.28;1.45;;;;;;;;;;4956031;28;20079;-79
2022/05/09 00:43:30;;;;;;;6.55;1.58;;;;;;;;;;4954452;29;20032;-79
2022/05/09 00:45:56;;;;;;;3.45;1.30;;;;;;;;;;4954442;28;20023;-78
2022/05/09 00:48:21;;;;;;;2.08;1.20;;;;;;;;;;4938324;29;20182;-79
2022/05/09 00:50:46;;;;;;;2.28;1.27;;;;;;;;;;4938341;29;20102;-79
2022/05/09 00:53:12;;;;;;;4.57;1.50;;;;;;;;;;4938642;29;20550;-79
2022/05/09 00:55:47;;;;;;;4.20;1.30;;;;;;;;;;4954371;29;20027;-80
2022/05/09 00:58:22;;;;;;;4.43;1.80;;;;;;;;;;4954361;29;20035;-80
2022/05/09 01:00:48;;;;;;;3.80;2.25;;;;;;;;;;4954136;29;20024;-80
2022/05/09 01:03:43;;;;;;;2.65;1.30;;;;;;;;;;4954043;29;20039;-78
2022/05/09 01:06:09;;;;;;;3.72;1.52;;;;;;;;;;4965081;28;20080;-78
2022/05/09 01:08:35;;;;;;;3.13;1.40;;;;;;;;;;4941129;28;20125;-78
2022/05/09 01:11:03;;;;;;;3.15;1.45;;;;;;;;;;4957123;28;20126;-78
2022/05/09 01:13:32;;;;;;;4.15;1.63;;;;;;;;;;4956960;28;20477;-78
2022/05/09 01:15:58;;;;;;;4.75;1.77;;;;;;;;;;4957329;28;20062;-78
2022/05/09 01:18:24;;;;;;;3.83;1.27;;;;;;;;;;4941145;28;20061;-78
2022/05/09 01:20:50;;;;;;;5.68;1.58;;;;;;;;;;4956468;28;20125;-78
2022/05/09 01:23:16;;;;;;;3.75;1.40;;;;;;;;;;4941450;28;20512;-79
2022/05/09 01:25:41;;;;;;;4.78;1.92;;;;;;;;;;4940911;28;20041;-80
2022/05/09 01:28:08;;;;;;;3.88;1.63;;;;;;;;;;4956807;28;20031;-80
2022/05/09 01:30:57;;;;;;;3.70;1.65;;;;;;;;;;4956988;28;20030;-79
2022/05/09 01:33:26;;;;;;;2.90;1.35;;;;;;;;;;4957449;28;20038;-78
2022/05/09 01:35:57;;;;;;;4.60;1.45;;;;;;;;;;4941141;28;20039;-78
2022/05/09 01:38:29;;;;;;;2.58;1.42;;;;;;;;;;4940504;28;20066;-78
2022/05/09 01:40:54;;;;;;;3.03;1.55;;;;;;;;;;4974375;28;20101;-78
2022/05/09 01:43:41;;;;;;;2.25;1.38;;;;;;;;;;4973827;28;20427;-78
2022/05/09 01:46:13;;;;;;;5.78;1.50;;;;;;;;;;4956548;28;20045;-78
2022/05/09 01:51:24;;;;;;;4.30;1.50;;;;;;;;;;4945913;28;20488;-79
2022/05/09 01:53:52;;;;;;;4.15;1.55;;;;;;;;;;4973007;28;20061;-78
2022/05/09 01:56:38;;;;;;;2.53;1.20;;;;;;;;;;4956520;28;20034;-78
2022/05/09 01:59:06;;;;;;;3.38;1.25;;;;;;;;;;4956360;28;20370;-78
2022/05/09 02:01:47;;;;;;;3.17;1.50;;;;;;;;;;4956298;28;20444;-78
2022/05/09 02:04:13;;;;;;;3.78;1.30;;;;;;;;;;4956222;28;20030;-77
2022/05/09 02:06:39;;;;;;;4.07;1.70;;;;;;;;;;4940018;28;20050;-80
2022/05/09 02:09:05;;;;;;;2.40;1.48;;;;;;;;;;4956422;28;20045;-78
2022/05/09 02:11:30;;;;;;;4.50;1.67;;;;;;;;;;4956009;28;20346;-79
2022/05/09 02:13:56;;;;;;;4.38;1.70;;;;;;;;;;4939971;28;20035;-80
2022/05/09 02:16:21;;;;;;;3.67;1.58;;;;;;;;;;4955926;28;20038;-79
2022/05/09 02:18:46;;;;;;;2.95;1.25;;;;;;;;;;4940145;28;20034;-79
2022/05/09 02:21:12;;;;;;;3.17;1.00;;;;;;;;;;4940052;28;20042;-80
2022/05/09 02:23:38;;;;;;;4.07;1.40;;;;;;;;;;4956241;28;20045;-79
2022/05/09 02:26:03;;;;;;;6.00;1.50;;;;;;;;;;4956229;28;20062;-80
2022/05/09 02:28:29;;;;;;;4.70;1.67;;;;;;;;;;4955783;28;20042;-80
2022/05/09 02:30:54;;;;;;;2.40;1.27;;;;;;;;;;4940228;28;20046;-79
2022/05/09 02:33:20;;;;;;;4.03;1.50;;;;;;;;;;4955022;28;20548;-79
2022/05/09 02:35:45;;;;;;;3.67;1.65;;;;;;;;;;4973193;28;20433;-79
2022/05/09 02:38:11;;;;;;;2.88;1.20;;;;;;;;;;4955826;28;20462;-79
2022/05/09 02:40:37;;;;;;;4.75;1.35;;;;;;;;;;4940317;28;20031;-79
2022/05/09 02:43:03;;;;;;;2.28;1.30;;;;;;;;;;4956051;28;20054;-79
2022/05/09 02:45:28;;;;;;;5.30;1.40;;;;;;;;;;4955539;28;20065;-79
2022/05/09 02:47:55;;;;;;;2.55;1.30;;;;;;;;;;4940072;28;20114;-79
2022/05/09 02:50:21;;;;;;;2.47;1.38;;;;;;;;;;4955913;28;20544;-80
2022/05/09 02:52:47;;;;;;;4.40;1.45;;;;;;;;;;4955686;28;20030;-79
2022/05/09 02:55:13;;;;;;;2.50;1.17;;;;;;;;;;4955804;28;20034;-79
2022/05/09 02:57:38;;;;;;;4.68;1.70;;;;;;;;;;4940018;28;20026;-79
2022/05/09 03:00:09;;;;;;;3.63;1.33;;;;;;;;;;4940210;28;20037;-79
2022/05/09 03:02:35;;;;;;;4.60;1.58;;;;;;;;;;4955697;28;20050;-79
2022/05/09 03:05:00;;;;;;;2.88;1.60;;;;;;;;;;4955535;28;20046;-80
2022/05/09 03:07:26;;;;;;;3.17;1.30;;;;;;;;;;4955482;28;20388;-80
2022/05/09 03:09:51;;;;;;;1.98;1.10;;;;;;;;;;4955576;28;20034;-79
2022/05/09 03:12:20;;;;;;;4.20;1.70;;;;;;;;;;4973106;28;20536;-79
2022/05/09 03:14:46;;;;;;;5.25;1.80;;;;;;;;;;4940522;28;20122;-79
2022/05/09 03:17:12;;;;;;;5.10;1.85;;;;;;;;;;4939797;28;20411;-79
2022/05/09 03:19:38;;;;;;;4.18;1.70;;;;;;;;;;4955639;28;20046;-79
2022/05/09 03:22:04;;;;;;;3.53;1.30;;;;;;;;;;4939694;28;20410;-79
2022/05/09 03:24:29;;;;;;;4.97;2.00;;;;;;;;;;4955420;28;20131;-79
2022/05/09 03:26:55;;;;;;;3.03;1.38;;;;;;;;;;4972817;28;20108;-79
2022/05/09 03:29:22;;;;;;;2.80;1.65;;;;;;;;;;4955503;28;20111;-79
2022/05/09 03:31:47;;;;;;;2.97;1.33;;;;;;;;;;4955720;28;20048;-79
2022/05/09 03:34:14;;;;;;;5.03;1.80;;;;;;;;;;4923897;28;20129;-79
2022/05/09 03:36:40;;;;;;;2.88;1.45;;;;;;;;;;4955860;28;20500;-79
2022/05/09 03:39:06;;;;;;;1.92;1.30;;;;;;;;;;4955316;28;20217;-79
2022/05/09 03:41:32;;;;;;;4.82;1.60;;;;;;;;;;4955132;28;20023;-79
2022/05/09 03:43:57;;;;;;;1.85;1.20;;;;;;;;;;4957348;28;20077;-78
2022/05/09 03:46:23;;;;;;;5.20;1.60;;;;;;;;;;4958545;28;20035;-79
2022/05/09 03:48:48;;;;;;;4.15;1.42;;;;;;;;;;4942702;28;20033;-78
2022/05/09 03:51:14;;;;;;;2.38;1.45;;;;;;;;;;4976319;28;20118;-78
2022/05/09 03:53:39;;;;;;;5.03;1.80;;;;;;;;;;4959144;28;20477;-78
2022/05/09 03:56:06;;;;;;;5.20;1.52;;;;;;;;;;4960587;28;20107;-79
2022/05/09 03:58:32;;;;;;;2.03;1.30;;;;;;;;;;4961469;28;20031;-78
2022/05/09 04:00:58;;;;;;;3.35;1.52;;;;;;;;;;4945801;28;20041;-78
2022/05/09 04:03:23;;;;;;;1.92;1.17;;;;;;;;;;4944071;28;20460;-80
2022/05/09 04:05:49;;;;;;;6.28;1.70;;;;;;;;;;4959373;28;20054;-79
2022/05/09 04:08:17;;;;;;;17.83;1.40;;;;;;;;;;4976770;28;20039;-78
2022/05/09 04:10:44;;;;;;;5.03;1.77;;;;;;;;;;4958705;28;20023;-78
2022/05/09 04:13:09;;;;;;;4.05;1.83;;;;;;;;;;4943677;28;20022;-77
2022/05/09 04:18:21;;;;;;;3.75;1.50;;;;;;;;;;4947955;28;20505;-77
2022/05/09 04:20:48;;;;;;;3.30;1.77;;;;;;;;;;4975858;28;20166;-78
2022/05/09 04:23:14;;;;;;;5.53;1.55;;;;;;;;;;4958147;28;20030;-79
2022/05/09 04:25:40;;;;;;;6.20;1.40;;;;;;;;;;4975268;28;20474;-79
2022/05/09 04:28:06;;;;;;;7.43;1.80;;;;;;;;;;4942044;28;20438;-79
2022/05/09 04:30:35;;;;;;;4.45;1.90;;;;;;;;;;4941464;28;20071;-78
2022/05/09 04:33:00;;;;;;;5.18;2.00;;;;;;;;;;4958104;28;20030;-79
2022/05/09 04:35:26;;;;;;;4.20;1.70;;;;;;;;;;4942203;28;20035;-81
2022/05/09 04:37:53;;;;;;;6.90;1.88;;;;;;;;;;4941785;28;20038;-81
2022/05/09 04:40:24;;;;;;;4.90;1.70;;;;;;;;;;4942075;28;20069;-81
2022/05/09 04:42:51;;;;;;;3.90;2.00;;;;;;;;;;4957855;28;20106;-81
2022/05/09 04:45:17;;;;;;;3.95;1.65;;;;;;;;;;4957457;28;20078;-80
2022/05/09 04:47:45;;;;;;;5.00;1.83;;;;;;;;;;4941907;28;20375;-79
2022/05/09 04:50:12;;;;;;;3.42;1.58;;;;;;;;;;4957546;28;20109;-84
2022/05/09 04:52:38;;;;;;;13.68;2.50;;;;;;;;;;4957497;28;20444;-81
2022/05/09 04:55:04;;;;;;;6.97;2.25;;;;;;;;;;4941414;28;20080;-80
2022/05/09 04:57:29;;;;;;;27.40;5.80;;;;;;;;;;4957858;28;20117;-81
2022/05/09 04:59:55;;;;;;;19.55;5.32;;;;;;;;;;4958409;28;20071;-82
2022/05/09 05:02:20;;;;;;;23.98;4.75;;;;;;;;;;4957852;28;20342;-81
2022/05/09 05:04:46;;;;;;;19.23;4.93;;;;;;;;;;4958342;28;20482;-81
2022/05/09 05:07:11;;;;;;;19.83;5.10;;;;;;;;;;4942815;28;20059;-81
2022/05/09 05:09:36;;;;;;;23.80;6.28;;;;;;;;;;4944579;28;20042;-81
2022/05/09 05:12:03;;;;;;;28.73;5.13;;;;;;;;;;4945314;28;20030;-82
2022/05/09 05:14:28;;;;;;;18.35;4.35;;;;;;;;;;4945923;28;20450;-82
2022/05/09 05:17:00;;;;;;;19.27;4.85;;;;;;;;;;4944662;28;20055;-81
2022/05/09 05:19:36;;;;;;;19.77;4.80;;;;;;;;;;4931141;28;20035;-83
2022/05/09 05:22:03;;;;;;;21.00;4.78;;;;;;;;;;4960575;28;20022;-83
2022/05/09 05:24:33;;;;;;;20.60;4.30;;;;;;;;;;4959861;28;20034;-83
2022/05/09 05:26:59;;;;;;;15.23;3.97;;;;;;;;;;4958653;28;20062;-83
2022/05/09 05:29:25;;;;;;;13.65;3.45;;;;;;;;;;4959854;28;20038;-83
2022/05/09 05:31:50;;;;;;;24.60;4.22;;;;;;;;;;4959157;28;20023;-81
2022/05/09 05:34:16;;;;;;;12.68;3.67;;;;;;;;;;4944402;28;20033;-81
2022/05/09 05:36:42;;;;;;;16.67;4.47;;;;;;;;;;4959940;28;20105;-81
2022/05/09 05:39:09;;;;;;;11.57;3.40;;;;;;;;;;4974685;28;20089;-81
2022/05/09 05:41:35;;;;;;;14.20;4.22;;;;;;;;;;4976917;28;20030;-82
2022/05/09 05:44:01;;;;;;;10.45;2.90;;;;;;;;;;4944902;28;20022;-82
2022/05/09 05:46:26;;;;;;;11.32;3.35;;;;;;;;;;4943173;28;20045;-82
2022/05/09 05:48:51;;;;;;;14.63;3.38;;;;;;;;;;4959432;28;20030;-81
2022/05/09 05:51:18;;;;;;;10.63;2.95;;;;;;;;;;4964657;28;20031;-81
2022/05/09 05:53:44;;;;;;;9.93;3.03;;;;;;;;;;4960928;28;20027;-80
2022/05/09 05:56:10;;;;;;;5.60;2.55;;;;;;;;;;4942857;28;20057;-81
2022/05/09 05:58:36;;;;;;;6.47;2.45;;;;;;;;;;4959543;28;20118;-82
2022/05/09 06:01:01;;;;;;;6.93;2.33;;;;;;;;;;4957732;28;20030;-82
2022/05/09 06:03:27;;;;;;;8.70;3.17;;;;;;;;;;4940929;28;20038;-82
2022/05/09 06:05:52;;;;;;;8.82;2.03;;;;;;;;;;4973649;28;20090;-82
2022/05/09 06:08:19;;;;;;;6.90;2.70;;;;;;;;;;4940633;28;20568;-84
2022/05/09 06:10:44;;;;;;;12.65;2.30;;;;;;;;;;4940748;28;20077;-82
2022/05/09 06:13:10;;;;;;;7.80;2.78;;;;;;;;;;4973838;28;20070;-84
2022/05/09 06:15:36;;;;;;;8.32;2.50;;;;;;;;;;4956710;28;20034;-83
2022/05/09 06:18:09;;;;;;;4.88;2.40;;;;;;;;;;4941514;28;20089;-83
2022/05/09 06:20:37;;;;;;;9.80;2.63;;;;;;;;;;4956374;28;20034;-83
2022/05/09 06:23:03;;;;;;;7.43;2.22;;;;;;;;;;4956256;28;20281;-83
2022/05/09 06:25:30;;;;;;;9.65;2.40;;;;;;;;;;4955982;28;20037;-82
2022/05/09 06:27:56;;;;;;;5.68;2.10;;;;;;;;;;4973778;28;20118;-82
2022/05/09 06:30:23;;;;;;;6.35;2.47;;;;;;;;;;4973723;28;20054;-84
2022/05/09 06:32:48;;;;;;;7.50;2.20;;;;;;;;;;4956150;28;20023;-84
2022/05/09 06:35:23;;;;;;;7.97;3.33;;;;;;;;;;4956070;28;20060;-83
2022/05/09 06:37:50;;;;;;;6.57;2.00;;;;;;;;;;4956686;28;20026;-84
2022/05/09 06:40:19;;;;;;;6.05;2.08;;;;;;;;;;4956086;28;20031;-85
2022/05/09 06:42:44;;;;;;;6.47;2.22;;;;;;;;;;4941278;28;20035;-84
2022/05/09 06:45:10;;;;;;;3.70;1.80;;;;;;;;;;4956504;28;20031;-84
2022/05/09 06:47:47;;;;;;;4.65;1.90;;;;;;;;;;4961167;28;20437;-84
2022/05/09 06:50:12;;;;;;;4.90;1.55;;;;;;;;;;4956182;28;20033;-84
2022/05/09 06:52:38;;;;;;;4.45;1.75;;;;;;;;;;4940182;28;20105;-84
2022/05/09 06:55:04;;;;;;;5.68;1.95;;;;;;;;;;4940149;28;20046;-84
2022/05/09 06:57:33;;;;;;;3.85;1.70;;;;;;;;;;4956399;28;20109;-83
2022/05/09 06:59:58;;;;;;;5.00;2.15;;;;;;;;;;4940415;28;20041;-85
2022/05/09 07:02:23;;;;;;;5.85;2.00;;;;;;;;;;4939823;28;20039;-85
2022/05/09 07:04:49;;;;;;;5.15;2.00;;;;;;;;;;4956960;28;20385;-87
2022/05/09 07:07:14;;;;;;;4.97;1.42;;;;;;;;;;4952779;29;20118;-87
2022/05/09 07:09:40;;;;;;;3.63;1.88;;;;;;;;;;4921343;29;20083;-86
2022/05/09 07:12:06;;;;;;;4.35;1.75;;;;;;;;;;4953514;29;20057;-85
2022/05/09 07:14:31;;;;;;;2.83;1.50;;;;;;;;;;4952754;28;20034;-84
2022/05/09 07:16:57;;;;;;;3.95;1.83;;;;;;;;;;4953725;29;20043;-83
2022/05/09 07:19:22;;;;;;;10.00;2.33;;;;;;;;;;4971588;28;20079;-78
2022/05/09 07:21:48;;;;;;;10.10;2.40;;;;;;;;;;4956362;29;20046;-80
2022/05/09 07:24:13;;;;;;;7.35;2.50;;;;;;;;;;4940514;29;20057;-79
2022/05/09 07:26:39;;;;;;;7.03;2.10;;;;;;;;;;4955923;29;20031;-78
2022/05/09 07:29:05;;;;;;;4.55;1.75;;;;;;;;;;4956067;29;20117;-78
2022/05/09 07:31:31;;;;;;;7.43;2.45;;;;;;;;;;4957559;28;20071;-79
2022/05/09 07:33:56;;;;;;;4.85;2.17;;;;;;;;;;4940507;29;20031;-79
2022/05/09 07:36:21;;;;;;;10.70;2.53;;;;;;;;;;4956021;29;20205;-79
2022/05/09 07:38:47;;;;;;;7.50;2.22;;;;;;;;;;4939777;29;20487;-79
2022/05/09 07:41:12;;;;;;;5.50;1.90;;;;;;;;;;4955832;29;20031;-80
2022/05/09 07:43:38;;;;;;;5.13;1.80;;;;;;;;;;4939971;29;20035;-80
2022/05/09 07:46:03;;;;;;;6.40;1.83;;;;;;;;;;4939766;29;20046;-80
2022/05/09 07:48:29;;;;;;;5.18;1.70;;;;;;;;;;4956975;28;20035;-79
2022/05/09 07:50:56;;;;;;;6.15;1.65;;;;;;;;;;4939701;29;20035;-79
2022/05/09 07:53:31;;;;;;;4.20;1.80;;;;;;;;;;4939566;29;20028;-79
2022/05/09 07:55:56;;;;;;;4.05;1.83;;;;;;;;;;4939612;29;20038;-77
2022/05/09 07:58:22;;;;;;;4.45;1.75;;;;;;;;;;4939617;29;20027;-78
2022/05/09 08:00:48;;;;;;;5.15;1.77;;;;;;;;;;4955767;29;20031;-81
2022/05/09 08:03:22;;;;;;;7.47;2.10;;;;;;;;;;4955266;29;20442;-80
2022/05/09 08:05:49;;;;;;;6.18;1.83;;;;;;;;;;4958528;28;20518;-83
2022/05/09 08:08:15;;;;;;;4.82;1.85;;;;;;;;;;4958515;28;20031;-81
2022/05/09 08:10:41;;;;;;;5.80;2.00;;;;;;;;;;4926462;28;20398;-79
2022/05/09 08:13:08;;;;;;;7.53;1.65;;;;;;;;;;4974695;28;20027;-78
2022/05/09 08:15:34;;;;;;;6.32;1.85;;;;;;;;;;4937534;29;20034;-81
2022/05/09 08:18:01;;;;;;;4.82;1.80;;;;;;;;;;4954919;28;20343;-81
2022/05/09 08:20:28;;;;;;;2.88;1.50;;;;;;;;;;4955338;29;20103;-82
2022/05/09 08:23:01;;;;;;;11.45;1.63;;;;;;;;;;4956393;28;20046;-83
2022/05/09 08:25:26;;;;;;;4.18;1.77;;;;;;;;;;4955071;29;20390;-82
2022/05/09 08:27:55;;;;;;;5.43;2.22;;;;;;;;;;4956293;29;20043;-83
2022/05/09 08:30:20;;;;;;;9.73;1.85;;;;;;;;;;4954003;28;20490;-81
2022/05/09 08:32:45;;;;;;;6.63;1.98;;;;;;;;;;4954705;29;20034;-81
2022/05/09 08:35:13;;;;;;;10.82;1.65;;;;;;;;;;4956238;29;20067;-81
2022/05/09 08:37:39;;;;;;;7.53;1.70;;;;;;;;;;4956399;29;20031;-81
2022/05/09 08:40:05;;;;;;;7.80;2.38;;;;;;;;;;4957763;28;20032;-83
2022/05/09 08:42:39;;;;;;;10.52;1.75;;;;;;;;;;4941012;29;20035;-83
2022/05/09 08:45:17;;;;;;;8.40;1.85;;;;;;;;;;4957136;29;20520;-83
2022/05/09 08:48:04;;;;;;;7.85;1.88;;;;;;;;;;4955158;29;20031;-81
2022/05/09 08:50:51;;;;;;;9.15;1.52;;;;;;;;;;4956527;29;20050;-81
2022/05/09 08:53:23;;;;;;;9.57;1.58;;;;;;;;;;4956078;29;20106;-81
2022/05/09 08:55:48;;;;;;;3.97;1.60;;;;;;;;;;4956185;28;20110;-82
2022/05/09 08:58:39;;;;;;;3.38;1.63;;;;;;;;;;4954645;29;20426;-82
2022/05/09 09:01:28;;;;;;;3.42;1.42;;;;;;;;;;4955870;29;20040;-81
2022/05/09 09:03:58;;;;;;;5.88;1.90;;;;;;;;;;4955669;29;20489;-82
2022/05/09 09:06:47;;;;;;;5.32;1.65;;;;;;;;;;4954358;29;20126;-81
2022/05/09 09:09:40;;;;;;;3.17;1.70;;;;;;;;;;4936326;29;20372;-81
2022/05/09 09:12:30;;;;;;;6.95;1.75;;;;;;;;;;4956207;29;20050;-83
2022/05/09 09:15:32;;;;;;;4.35;1.92;;;;;;;;;;4956583;29;20031;-83
2022/05/09 09:18:31;;;;;;;8.00;1.88;;;;;;;;;;4954738;28;20098;-84
2022/05/09 09:21:02;;;;;;;7.43;1.48;;;;;;;;;;4954689;28;20027;-82
2022/05/09 09:24:10;;;;;;;5.25;1.65;;;;;;;;;;4954332;29;20429;-84
2022/05/09 09:27:05;;;;;;;3.47;1.55;;;;;;;;;;4950354;29;20391;-84
2022/05/09 09:29:34;;;;;;;5.38;1.63;;;;;;;;;;4954361;29;20470;-84
2022/05/09 09:32:10;;;;;;;4.97;1.90;;;;;;;;;;4955129;29;20434;-84
2022/05/09 09:34:48;;;;;;;4.57;1.52;;;;;;;;;;4954662;29;20485;-85
2022/05/09 09:37:18;;;;;;;3.53;1.60;;;;;;;;;;4954081;29;20066;-85
2022/05/09 09:39:43;;;;;;;6.80;1.70;;;;;;;;;;4954232;29;20027;-84
2022/05/09 09:42:09;;;;;;;7.75;1.60;;;;;;;;;;4953623;28;20378;-84
2022/05/09 09:44:38;;;;;;;5.10;1.58;;;;;;;;;;4969786;28;20035;-84
2022/05/09 09:47:22;;;;;;;6.60;1.90;;;;;;;;;;4954304;28;20047;-83
2022/05/09 09:49:49;;;;;;;5.38;1.85;;;;;;;;;;4953923;29;20050;-81
2022/05/09 09:52:22;;;;;;;7.55;2.08;;;;;;;;;;4954194;29;20031;-83
2022/05/09 09:55:08;;;;;;;8.07;1.50;;;;;;;;;;4954300;28;20423;-82
2022/05/09 09:57:37;;;;;;;7.93;2.70;;;;;;;;;;4955412;28;20122;-82
2022/05/09 10:00:19;;;;;;;2.92;1.40;;;;;;;;;;4956706;28;20041;-81
2022/05/09 10:02:45;;;;;;;5.43;1.70;;;;;;;;;;4956977;28;20026;-83
2022/05/09 10:05:13;;;;;;;8.38;1.90;;;;;;;;;;4957252;28;20027;-81
2022/05/09 10:07:43;;;;;;;10.18;2.35;;;;;;;;;;4956588;29;20129;-80
2022/05/09 10:10:21;;;;;;;4.80;1.55;;;;;;;;;;4954570;29;20518;-81
2022/05/09 10:12:55;;;;;;;3.85;1.40;;;;;;;;;;4955019;29;20019;-81
2022/05/09 10:15:23;;;;;;;5.72;1.33;;;;;;;;;;4958334;29;20024;-80
2022/05/09 10:17:48;;;;;;;4.28;1.60;;;;;;;;;;4955579;28;20031;-79
2022/05/09 10:20:33;;;;;;;5.38;1.40;;;;;;;;;;4954015;29;20035;-79
2022/05/09 10:26:21;;;;;;;3.75;1.35;;;;;;;;;;4902404;29;20043;-79
2022/05/09 10:28:49;;;;;;;7.38;1.77;;;;;;;;;;4915363;29;20036;-79
2022/05/09 10:31:27;;;;;;;2.40;1.27;;;;;;;;;;4898985;29;20136;-80
2022/05/09 10:34:03;;;;;;;3.70;1.48;;;;;;;;;;4899875;29;20040;-80
2022/05/09 10:36:36;;;;;;;3.22;1.40;;;;;;;;;;4900304;29;20114;-81
2022/05/09 10:39:33;;;;;;;4.60;1.30;;;;;;;;;;4915829;29;20408;-81
2022/05/09 10:42:02;;;;;;;12.10;1.60;;;;;;;;;;4900758;29;20048;-82
2022/05/09 10:44:51;;;;;;;11.15;1.70;;;;;;;;;;4900191;29;20075;-84
2022/05/09 10:47:52;;;;;;;5.85;2.00;;;;;;;;;;4900525;29;20135;-79
2022/05/09 10:50:18;;;;;;;5.97;1.80;;;;;;;;;;4853337;29;20080;-81
2022/05/09 10:53:20;;;;;;;6.10;1.70;;;;;;;;;;4914852;29;20063;-79
2022/05/09 10:55:52;;;;;;;2.78;1.50;;;;;;;;;;4919745;29;20150;-81
2022/05/09 10:58:46;;;;;;;3.13;1.33;;;;;;;;;;4903659;29;20482;-83
2022/05/09 11:01:18;;;;;;;3.95;1.40;;;;;;;;;;4958903;28;20122;-82
2022/05/09 11:03:45;;;;;;;3.30;1.40;;;;;;;;;;4957147;29;20089;-81
2022/05/09 11:06:16;;;;;;;5.55;1.42;;;;;;;;;;4956928;29;20426;-81
2022/05/09 11:09:00;;;;;;;13.77;1.55;;;;;;;;;;4958856;28;20019;-83
2022/05/09 11:11:34;;;;;;;6.05;1.90;;;;;;;;;;4958980;29;20027;-81
2022/05/09 11:14:12;;;;;;;3.58;1.23;;;;;;;;;;4957077;29;20023;-81
2022/05/09 11:17:01;;;;;;;9.65;2.05;;;;;;;;;;4957786;28;20035;-82
2022/05/09 11:19:34;;;;;;;2.10;1.40;;;;;;;;;;4938500;28;20478;-82
2022/05/09 11:22:11;;;;;;;4.27;1.30;;;;;;;;;;4960014;28;20427;-81
2022/05/09 11:24:51;;;;;;;3.60;1.55;;;;;;;;;;4958531;28;20086;-81
2022/05/09 11:27:30;;;;;;;2.20;1.10;;;;;;;;;;4958031;28;20339;-81
2022/05/09 11:30:16;;;;;;;7.35;1.50;;;;;;;;;;4957738;28;20532;-82
2022/05/09 11:32:43;;;;;;;2.05;1.25;;;;;;;;;;4957770;29;20024;-81
2022/05/09 11:35:23;;;;;;;4.93;1.80;;;;;;;;;;4956440;29;20027;-81
2022/05/09 11:38:10;;;;;;;2.20;1.30;;;;;;;;;;4957263;29;20496;-80
2022/05/09 11:40:54;;;;;;;2.83;1.40;;;;;;;;;;4957390;29;20027;-80
2022/05/09 11:43:44;;;;;;;1.98;1.33;;;;;;;;;;4957350;29;20471;-81
2022/05/09 11:46:43;;;;;;;5.30;1.40;;;;;;;;;;4955453;29;20493;-81
2022/05/09 11:49:48;;;;;;;2.80;1.40;;;;;;;;;;4957332;29;20031;-80
2022/05/09 11:52:27;;;;;;;2.50;1.35;;;;;;;;;;4901230;29;20051;-81
2022/05/09 11:55:06;;;;;;;3.50;1.42;;;;;;;;;;4951021;29;20038;-82
2022/05/09 11:57:38;;;;;;;1.60;1.20;;;;;;;;;;4957160;28;20027;-82
2022/05/09 12:00:09;;;;;;;2.83;1.48;;;;;;;;;;4955708;29;20027;-81
2022/05/09 12:02:51;;;;;;;1.58;1.20;;;;;;;;;;4955550;29;20027;-81
2022/05/09 12:05:32;;;;;;;3.80;1.35;;;;;;;;;;4956398;28;20129;-81
2022/05/09 12:08:04;;;;;;;3.35;1.27;;;;;;;;;;4956897;29;20050;-80
2022/05/09 12:10:35;;;;;;;2.13;1.30;;;;;;;;;;4955686;29;20051;-80
2022/05/09 12:13:14;;;;;;;4.63;1.40;;;;;;;;;;4955335;28;20105;-80
2022/05/09 12:15:43;;;;;;;2.97;1.50;;;;;;;;;;4955509;29;20406;-80
2022/05/09 12:18:15;;;;;;;1.60;1.20;;;;;;;;;;4955406;29;20544;-80
2022/05/09 12:20:46;;;;;;;2.22;1.10;;;;;;;;;;4956538;29;20093;-81
2022/05/09 12:23:13;;;;;;;2.58;1.30;;;;;;;;;;4954999;29;20023;-80
2022/05/09 12:25:48;;;;;;;2.65;1.00;;;;;;;;;;4955045;29;20023;-81
2022/05/09 12:28:24;;;;;;;2.05;1.08;;;;;;;;;;4956340;28;20027;-81
2022/05/09 12:30:58;;;;;;;1.30;1.00;;;;;;;;;;4954938;29;20027;-80
2022/05/09 12:33:45;;;;;;;1.58;1.23;;;;;;;;;;4955112;29;20462;-81
2022/05/09 12:36:18;;;;;;;2.47;1.35;;;;;;;;;;4956111;28;20019;-81
2022/05/09 12:38:46;;;;;;;1.43;1.00;;;;;;;;;;4954877;29;20067;-81
2022/05/09 12:41:30;;;;;;;1.73;1.05;;;;;;;;;;4954761;29;20031;-81
2022/05/09 12:43:56;;;;;;;1.55;1.10;;;;;;;;;;4956129;29;20067;-81
2022/05/09 12:46:31;;;;;;;1.52;1.10;;;;;;;;;;4954683;29;20125;-81
2022/05/09 12:48:59;;;;;;;1.40;1.10;;;;;;;;;;4954828;29;20537;-81
2022/05/09 12:51:27;;;;;;;2.67;1.30;;;;;;;;;;4954525;29;20031;-81
2022/05/09 12:53:52;;;;;;;4.75;1.25;;;;;;;;;;4954799;29;20418;-81
2022/05/09 12:56:27;;;;;;;2.20;0.95;;;;;;;;;;4955783;29;20039;-80
2022/05/09 12:59:05;;;;;;;3.67;1.40;;;;;;;;;;4954779;29;20038;-80
2022/05/09 13:01:30;;;;;;;1.77;0.90;;;;;;;;;;4970659;28;20110;-81
2022/05/09 13:04:05;;;;;;;1.65;1.20;;;;;;;;;;4954496;29;20106;-80
2022/05/09 13:06:35;;;;;;;1.95;1.38;;;;;;;;;;4954677;29;20075;-80
2022/05/09 13:09:13;;;;;;;3.05;1.10;;;;;;;;;;4954574;29;20045;-81
2022/05/09 13:11:39;;;;;;;1.33;1.05;;;;;;;;;;4954539;29;20030;-80
2022/05/09 13:14:12;;;;;;;3.35;1.15;;;;;;;;;;4922490;29;20130;-81
2022/05/09 13:16:40;;;;;;;1.27;1.05;;;;;;;;;;4954902;28;20042;-81
2022/05/09 13:19:06;;;;;;;2.50;1.50;;;;;;;;;;4954701;29;20030;-80
2022/05/09 13:21:37;;;;;;;4.05;1.38;;;;;;;;;;4953999;29;20027;-81
2022/05/09 13:24:06;;;;;;;1.20;0.90;;;;;;;;;;4953882;29;20031;-80
2022/05/09 13:26:32;;;;;;;3.50;1.10;;;;;;;;;;4954439;29;20042;-80
2022/05/09 13:29:09;;;;;;;0.88;0.88;;;;;;;;;;4953864;29;20043;-80
2022/05/09 13:31:43;;;;;;;1.15;1.02;;;;;;;;;;4954682;28;20038;-79
2022/05/09 13:34:37;;;;;;;1.30;1.10;;;;;;;;;;4955303;28;20023;-79
2022/05/09 13:37:05;;;;;;;1.30;1.20;;;;;;;;;;4951415;29;20043;-81
2022/05/09 13:39:41;;;;;;;1.33;1.10;;;;;;;;;;4954077;28;20042;-80
2022/05/09 13:42:12;;;;;;;1.42;1.05;;;;;;;;;;4953577;29;20443;-80
2022/05/09 13:44:40;;;;;;;1.10;1.00;;;;;;;;;;4954900;29;20034;-82
2022/05/09 13:47:05;;;;;;;1.25;1.15;;;;;;;;;;4953961;29;20118;-81
2022/05/09 13:49:31;;;;;;;1.38;1.00;;;;;;;;;;4953782;29;20114;-81
2022/05/09 13:51:56;;;;;;;1.92;1.10;;;;;;;;;;4953900;29;20039;-81
2022/05/09 13:54:27;;;;;;;1.95;1.13;;;;;;;;;;4953610;29;20026;-81
2022/05/09 13:57:28;;;;;;;1.73;1.00;;;;;;;;;;4955193;28;20043;-80
2022/05/09 13:59:56;;;;;;;1.42;0.98;;;;;;;;;;4944984;28;20039;-82
2022/05/09 14:02:25;;;;;;;1.73;1.20;;;;;;;;;;4953451;29;20106;-81
2022/05/09 14:05:01;;;;;;;2.40;0.95;;;;;;;;;;4953561;29;20061;-81
2022/05/09 14:07:41;;;;;;;3.10;1.13;;;;;;;;;;4953751;29;20046;-82
2022/05/09 14:10:42;;;;;;;1.10;0.93;;;;;;;;;;4954539;28;20125;-81
2022/05/09 14:13:29;;;;;;;2.15;1.25;;;;;;;;;;4953227;29;20384;-81
2022/05/09 14:16:07;;;;;;;1.52;0.90;;;;;;;;;;4954335;29;20027;-81
2022/05/09 14:18:38;;;;;;;1.75;1.15;;;;;;;;;;4954756;28;20046;-81
2022/05/09 14:21:06;;;;;;;1.95;1.27;;;;;;;;;;4953163;29;20031;-81
2022/05/09 14:23:32;;;;;;;1.83;0.98;;;;;;;;;;4953063;29;20046;-81
2022/05/09 14:31:53;;;;;;;1.70;1.05;;;;;;;;;;4955790;29;20516;-81
2022/05/09 14:34:21;;;;;;;2.55;1.10;;;;;;;;;;4955380;29;20099;-78
2022/05/09 14:36:47;;;;;;;0.88;0.85;;;;;;;;;;4954802;29;20055;-79
2022/05/09 14:39:25;;;;;;;2.25;1.17;;;;;;;;;;4954847;29;20065;-80
2022/05/09 14:41:50;;;;;;;4.68;1.15;;;;;;;;;;4954681;29;20126;-79
2022/05/09 14:44:24;;;;;;;1.45;1.10;;;;;;;;;;4954654;29;20114;-79
2022/05/09 14:47:04;;;;;;;2.78;1.25;;;;;;;;;;4954507;29;20035;-79
2022/05/09 14:49:46;;;;;;;1.42;1.02;;;;;;;;;;4954391;29;20053;-81
2022/05/09 14:52:21;;;;;;;1.75;1.08;;;;;;;;;;4955324;29;20474;-83
2022/05/09 14:57:25;;;;;;;1.52;1.20;;;;;;;;;;4954491;29;20066;-82
2022/05/09 14:57:38;;;;;;;1.63;1.02;;;;;;;;;;4954660;29;20079;-82
2022/05/09 15:00:07;;;;;;;3.35;1.10;;;;;;;;;;4955821;28;20414;-81
2022/05/09 15:02:34;;;;;;;2.60;1.00;;;;;;;;;;4954803;29;20427;-81
2022/05/09 15:05:01;;;;;;;1.20;1.08;;;;;;;;;;4954086;29;20031;-81
2022/05/09 15:07:26;;;;;;;1.52;1.05;;;;;;;;;;4955220;28;20046;-80
2022/05/09 15:09:52;;;;;;;3.03;1.50;;;;;;;;;;4955647;29;20027;-80
2022/05/09 15:12:24;;;;;;;2.72;1.23;;;;;;;;;;4954728;29;20023;-80
2022/05/09 15:14:49;;;;;;;2.55;1.25;;;;;;;;;;4954783;29;20031;-80
2022/05/09 15:17:15;;;;;;;2.92;1.30;;;;;;;;;;4954163;28;20046;-80